sensor_id;sensor_type;location;lat;lon;timestamp;temperature;humidity
17988;DHT22;9119;50.932;5.342;2023-02-01T00:00:00;6.60;99.90
17988;DHT22;9119;50.932;5.342;2023-02-01T00:02:26;6.60;99.90
17988;DHT22;9119;50.932;5.342;2023-02-01T00:04:51;6.60;99.90
17988;DHT22;9119;50.932;5.342;2023-02-01T00:07:17;6.60;99.90
17988;DHT22;9119;50.932;5.342;2023-02-01T00:09:43;6.60;99.90
17988;DHT22;9119;50.932;5.342;2023-02-01T00:12:08;6.60;99.90
17988;DHT22;9119;50.932;5.342;2023-02-01T00:14:34;6.60;99.90
17988;DHT22;9119;50.932;5.342;2023-02-01T00:17:05;6.60;99.90
17988;DHT22;9119;50.932;5.342;2023-02-01T00:19:32;6.70;99.90
17988;DHT22;9119;50.932;5.342;2023-02-01T00:21:58;6.70;99.90
17988;DHT22;9119;50.932;5.342;2023-02-01T00:24:24;6.70;99.90
17988;DHT22;9119;50.932;5.342;2023-02-01T00:26:50;6.70;99.90
17988;DHT22;9119;50.932;5.342;2023-02-01T00:29:17;6.70;99.90
17988;DHT22;9119;50.932;5.342;2023-02-01T00:31:43;6.70;99.90
17988;DHT22;9119;50.932;5.342;2023-02-01T00:34:12;6.70;99.90
17988;DHT22;9119;50.932;5.342;2023-02-01T00:36:38;6.60;99.90
17988;DHT22;9119;50.932;5.342;2023-02-01T00:39:06;6.60;99.90
17988;DHT22;9119;50.932;5.342;2023-02-01T00:41:32;6.60;99.90
17988;DHT22;9119;50.932;5.342;2023-02-01T00:44:01;6.80;99.90
17988;DHT22;9119;50.932;5.342;2023-02-01T00:46:27;6.60;99.90
17988;DHT22;9119;50.932;5.342;2023-02-01T00:48:53;6.60;99.90
17988;DHT22;9119;50.932;5.342;2023-02-01T00:51:22;6.60;99.90
17988;DHT22;9119;50.932;5.342;2023-02-01T00:53:49;6.60;99.90
17988;DHT22;9119;50.932;5.342;2023-02-01T00:56:15;6.80;99.90
17988;DHT22;9119;50.932;5.342;2023-02-01T00:58:41;6.70;99.90
17988;DHT22;9119;50.932;5.342;2023-02-01T01:01:17;6.70;99.90
17988;DHT22;9119;50.932;5.342;2023-02-01T01:03:46;6.80;99.90
17988;DHT22;9119;50.932;5.342;2023-02-01T01:06:18;6.80;99.90
17988;DHT22;9119;50.932;5.342;2023-02-01T01:08:45;6.70;99.90
17988;DHT22;9119;50.932;5.342;2023-02-01T01:11:16;6.80;99.90
17988;DHT22;9119;50.932;5.342;2023-02-01T01:13:46;6.80;99.90
17988;DHT22;9119;50.932;5.342;2023-02-01T01:16:16;6.90;99.90
17988;DHT22;9119;50.932;5.342;2023-02-01T01:18:43;6.80;99.90
17988;DHT22;9119;50.932;5.342;2023-02-01T01:21:09;6.80;99.90
17988;DHT22;9119;50.932;5.342;2023-02-01T01:23:37;6.80;99.90
17988;DHT22;9119;50.932;5.342;2023-02-01T01:26:17;6.90;99.90
17988;DHT22;9119;50.932;5.342;2023-02-01T01:28:43;6.80;99.90
17988;DHT22;9119;50.932;5.342;2023-02-01T01:31:11;6.80;99.90
17988;DHT22;9119;50.932;5.342;2023-02-01T01:33:38;6.80;99.90
17988;DHT22;9119;50.932;5.342;2023-02-01T01:36:07;6.80;99.90
17988;DHT22;9119;50.932;5.342;2023-02-01T01:38:37;6.80;99.90
17988;DHT22;9119;50.932;5.342;2023-02-01T01:41:03;7.00;99.90
17988;DHT22;9119;50.932;5.342;2023-02-01T01:43:50;6.90;99.90
17988;DHT22;9119;50.932;5.342;2023-02-01T01:46:29;6.90;99.90
17988;DHT22;9119;50.932;5.342;2023-02-01T01:51:28;6.90;99.90
17988;DHT22;9119;50.932;5.342;2023-02-01T01:54:48;6.80;99.90
17988;DHT22;9119;50.932;5.342;2023-02-01T01:57:26;6.80;99.90
17988;DHT22;9119;50.932;5.342;2023-02-01T02:00:07;6.80;99.90
17988;DHT22;9119;50.932;5.342;2023-02-01T02:02:35;6.80;99.90
17988;DHT22;9119;50.932;5.342;2023-02-01T02:05:02;6.80;99.90
17988;DHT22;9119;50.932;5.342;2023-02-01T02:07:31;6.70;99.90
17988;DHT22;9119;50.932;5.342;2023-02-01T02:10:09;6.70;99.90
17988;DHT22;9119;50.932;5.342;2023-02-01T02:12:39;6.80;99.90
17988;DHT22;9119;50.932;5.342;2023-02-01T02:15:10;6.70;99.90
17988;DHT22;9119;50.932;5.342;2023-02-01T02:31:31;6.80;99.90
17988;DHT22;9119;50.932;5.342;2023-02-01T02:40:14;6.80;99.90
17988;DHT22;9119;50.932;5.342;2023-02-01T02:42:52;6.80;99.90
17988;DHT22;9119;50.932;5.342;2023-02-01T02:45:47;6.80;99.90
17988;DHT22;9119;50.932;5.342;2023-02-01T02:48:44;6.80;99.90
17988;DHT22;9119;50.932;5.342;2023-02-01T02:51:23;7.00;99.90
17988;DHT22;9119;50.932;5.342;2023-02-01T02:54:21;6.70;99.90
17988;DHT22;9119;50.932;5.342;2023-02-01T02:57:10;6.80;99.90
17988;DHT22;9119;50.932;5.342;2023-02-01T03:00:00;6.70;99.90
17988;DHT22;9119;50.932;5.342;2023-02-01T03:02:47;6.70;99.90
17988;DHT22;9119;50.932;5.342;2023-02-01T03:05:33;6.80;99.90
17988;DHT22;9119;50.932;5.342;2023-02-01T03:08:08;6.80;99.90
17988;DHT22;9119;50.932;5.342;2023-02-01T03:21:06;6.70;99.90
17988;DHT22;9119;50.932;5.342;2023-02-01T03:23:35;6.60;99.90
17988;DHT22;9119;50.932;5.342;2023-02-01T03:26:04;6.60;99.90
17988;DHT22;9119;50.932;5.342;2023-02-01T03:28:33;6.60;99.90
17988;DHT22;9119;50.932;5.342;2023-02-01T03:31:01;6.60;99.90
17988;DHT22;9119;50.932;5.342;2023-02-01T03:33:28;6.60;99.90
17988;DHT22;9119;50.932;5.342;2023-02-01T03:39:02;6.50;99.90
17988;DHT22;9119;50.932;5.342;2023-02-01T03:41:41;6.50;99.90
17988;DHT22;9119;50.932;5.342;2023-02-01T03:47:01;6.50;99.90
17988;DHT22;9119;50.932;5.342;2023-02-01T03:49:36;6.40;99.90
17988;DHT22;9119;50.932;5.342;2023-02-01T03:52:04;6.40;99.90
17988;DHT22;9119;50.932;5.342;2023-02-01T03:54:32;6.30;99.90
17988;DHT22;9119;50.932;5.342;2023-02-01T03:57:02;6.30;99.90
17988;DHT22;9119;50.932;5.342;2023-02-01T03:59:28;6.30;99.90
17988;DHT22;9119;50.932;5.342;2023-02-01T04:01:54;6.50;99.90
17988;DHT22;9119;50.932;5.342;2023-02-01T04:04:20;6.30;99.90
17988;DHT22;9119;50.932;5.342;2023-02-01T04:06:50;6.20;99.90
17988;DHT22;9119;50.932;5.342;2023-02-01T04:09:16;6.20;99.90
17988;DHT22;9119;50.932;5.342;2023-02-01T04:11:45;6.20;99.90
17988;DHT22;9119;50.932;5.342;2023-02-01T04:14:10;6.10;99.90
17988;DHT22;9119;50.932;5.342;2023-02-01T04:16:36;6.10;99.90
17988;DHT22;9119;50.932;5.342;2023-02-01T04:19:02;6.10;99.90
17988;DHT22;9119;50.932;5.342;2023-02-01T04:21:28;6.10;99.90
17988;DHT22;9119;50.932;5.342;2023-02-01T04:23:54;6.10;99.90
17988;DHT22;9119;50.932;5.342;2023-02-01T04:26:20;6.10;99.90
17988;DHT22;9119;50.932;5.342;2023-02-01T04:28:47;6.10;99.90
17988;DHT22;9119;50.932;5.342;2023-02-01T04:31:14;6.20;99.90
17988;DHT22;9119;50.932;5.342;2023-02-01T04:33:40;6.20;99.90
17988;DHT22;9119;50.932;5.342;2023-02-01T04:36:06;6.10;99.90
17988;DHT22;9119;50.932;5.342;2023-02-01T04:38:31;6.10;99.90
17988;DHT22;9119;50.932;5.342;2023-02-01T04:40:58;6.00;99.90
17988;DHT22;9119;50.932;5.342;2023-02-01T04:43:24;6.00;99.90
17988;DHT22;9119;50.932;5.342;2023-02-01T04:45:50;6.10;99.90
17988;DHT22;9119;50.932;5.342;2023-02-01T04:48:18;6.10;99.90
17988;DHT22;9119;50.932;5.342;2023-02-01T04:50:45;6.30;99.90
17988;DHT22;9119;50.932;5.342;2023-02-01T04:53:16;6.00;99.90
17988;DHT22;9119;50.932;5.342;2023-02-01T04:55:43;6.00;99.90
17988;DHT22;9119;50.932;5.342;2023-02-01T04:58:09;6.00;99.90
17988;DHT22;9119;50.932;5.342;2023-02-01T05:00:35;6.00;99.90
17988;DHT22;9119;50.932;5.342;2023-02-01T05:03:01;6.00;99.90
17988;DHT22;9119;50.932;5.342;2023-02-01T05:05:27;6.00;99.90
17988;DHT22;9119;50.932;5.342;2023-02-01T05:07:53;6.30;99.90
17988;DHT22;9119;50.932;5.342;2023-02-01T05:10:19;6.00;99.90
17988;DHT22;9119;50.932;5.342;2023-02-01T05:12:44;6.10;99.90
17988;DHT22;9119;50.932;5.342;2023-02-01T05:15:29;6.10;99.90
17988;DHT22;9119;50.932;5.342;2023-02-01T05:17:56;6.10;99.90
17988;DHT22;9119;50.932;5.342;2023-02-01T05:20:21;6.10;99.90
17988;DHT22;9119;50.932;5.342;2023-02-01T05:22:47;6.10;99.90
17988;DHT22;9119;50.932;5.342;2023-02-01T05:25:13;6.10;99.90
17988;DHT22;9119;50.932;5.342;2023-02-01T05:27:38;6.00;99.90
17988;DHT22;9119;50.932;5.342;2023-02-01T05:30:05;6.00;99.90
17988;DHT22;9119;50.932;5.342;2023-02-01T05:32:31;6.00;99.90
17988;DHT22;9119;50.932;5.342;2023-02-01T05:34:56;6.00;99.90
17988;DHT22;9119;50.932;5.342;2023-02-01T05:37:22;6.10;99.90
17988;DHT22;9119;50.932;5.342;2023-02-01T05:39:48;6.00;99.90
17988;DHT22;9119;50.932;5.342;2023-02-01T05:42:14;6.20;99.90
17988;DHT22;9119;50.932;5.342;2023-02-01T05:44:39;5.90;99.90
17988;DHT22;9119;50.932;5.342;2023-02-01T05:47:05;6.10;99.90
17988;DHT22;9119;50.932;5.342;2023-02-01T05:49:31;5.80;99.90
17988;DHT22;9119;50.932;5.342;2023-02-01T05:51:56;6.00;99.90
17988;DHT22;9119;50.932;5.342;2023-02-01T05:54:22;5.80;99.90
17988;DHT22;9119;50.932;5.342;2023-02-01T05:56:48;5.80;99.90
17988;DHT22;9119;50.932;5.342;2023-02-01T05:59:14;5.70;99.90
17988;DHT22;9119;50.932;5.342;2023-02-01T06:01:39;5.80;99.90
17988;DHT22;9119;50.932;5.342;2023-02-01T06:04:11;5.80;99.90
17988;DHT22;9119;50.932;5.342;2023-02-01T06:06:37;5.70;99.90
17988;DHT22;9119;50.932;5.342;2023-02-01T06:09:03;5.80;99.90
17988;DHT22;9119;50.932;5.342;2023-02-01T06:11:29;5.90;99.90
17988;DHT22;9119;50.932;5.342;2023-02-01T06:13:55;5.70;99.90
17988;DHT22;9119;50.932;5.342;2023-02-01T06:16:21;5.70;99.90
17988;DHT22;9119;50.932;5.342;2023-02-01T06:18:47;5.70;99.90
17988;DHT22;9119;50.932;5.342;2023-02-01T06:21:13;5.80;99.90
17988;DHT22;9119;50.932;5.342;2023-02-01T06:23:40;5.60;99.90
17988;DHT22;9119;50.932;5.342;2023-02-01T06:26:06;5.60;99.90
17988;DHT22;9119;50.932;5.342;2023-02-01T06:28:34;5.60;99.90
17988;DHT22;9119;50.932;5.342;2023-02-01T06:31:07;5.50;99.90
17988;DHT22;9119;50.932;5.342;2023-02-01T06:33:33;5.70;99.90
17988;DHT22;9119;50.932;5.342;2023-02-01T06:36:01;5.50;99.90
17988;DHT22;9119;50.932;5.342;2023-02-01T06:38:27;5.50;99.90
17988;DHT22;9119;50.932;5.342;2023-02-01T06:40:55;5.50;99.90
17988;DHT22;9119;50.932;5.342;2023-02-01T06:43:22;5.50;99.90
17988;DHT22;9119;50.932;5.342;2023-02-01T06:45:47;5.50;99.90
17988;DHT22;9119;50.932;5.342;2023-02-01T06:48:13;5.40;99.90
17988;DHT22;9119;50.932;5.342;2023-02-01T06:50:39;5.40;99.90
17988;DHT22;9119;50.932;5.342;2023-02-01T06:53:05;5.40;99.90
17988;DHT22;9119;50.932;5.342;2023-02-01T06:55:33;5.60;99.90
17988;DHT22;9119;50.932;5.342;2023-02-01T06:57:59;5.40;99.90
17988;DHT22;9119;50.932;5.342;2023-02-01T07:00:26;5.40;99.90
17988;DHT22;9119;50.932;5.342;2023-02-01T07:02:52;5.60;99.90
17988;DHT22;9119;50.932;5.342;2023-02-01T07:05:17;5.30;99.90
17988;DHT22;9119;50.932;5.342;2023-02-01T07:07:43;5.30;99.90
17988;DHT22;9119;50.932;5.342;2023-02-01T07:10:10;5.30;99.90
17988;DHT22;9119;50.932;5.342;2023-02-01T07:12:36;5.30;99.90
17988;DHT22;9119;50.932;5.342;2023-02-01T07:15:03;5.30;99.90
17988;DHT22;9119;50.932;5.342;2023-02-01T07:17:29;5.20;99.90
17988;DHT22;9119;50.932;5.342;2023-02-01T07:19:55;5.30;99.90
17988;DHT22;9119;50.932;5.342;2023-02-01T07:22:21;5.20;99.90
17988;DHT22;9119;50.932;5.342;2023-02-01T07:24:47;5.20;99.90
17988;DHT22;9119;50.932;5.342;2023-02-01T07:27:12;5.20;99.90
17988;DHT22;9119;50.932;5.342;2023-02-01T07:29:39;5.20;99.90
17988;DHT22;9119;50.932;5.342;2023-02-01T07:32:04;5.20;99.90
17988;DHT22;9119;50.932;5.342;2023-02-01T07:34:30;5.30;99.90
17988;DHT22;9119;50.932;5.342;2023-02-01T07:36:56;5.30;99.90
17988;DHT22;9119;50.932;5.342;2023-02-01T07:39:22;5.30;99.90
17988;DHT22;9119;50.932;5.342;2023-02-01T07:41:48;5.20;99.90
17988;DHT22;9119;50.932;5.342;2023-02-01T07:44:13;5.20;99.90
17988;DHT22;9119;50.932;5.342;2023-02-01T07:46:39;5.30;99.90
17988;DHT22;9119;50.932;5.342;2023-02-01T07:49:05;5.30;99.90
17988;DHT22;9119;50.932;5.342;2023-02-01T07:51:31;5.30;99.90
17988;DHT22;9119;50.932;5.342;2023-02-01T07:53:57;5.30;99.90
17988;DHT22;9119;50.932;5.342;2023-02-01T07:56:23;5.30;99.90
17988;DHT22;9119;50.932;5.342;2023-02-01T07:58:49;5.40;99.90
17988;DHT22;9119;50.932;5.342;2023-02-01T08:01:21;5.40;99.90
17988;DHT22;9119;50.932;5.342;2023-02-01T08:03:51;5.30;99.90
17988;DHT22;9119;50.932;5.342;2023-02-01T08:06:18;5.30;99.90
17988;DHT22;9119;50.932;5.342;2023-02-01T08:08:45;5.40;99.90
17988;DHT22;9119;50.932;5.342;2023-02-01T08:11:13;5.30;99.90
17988;DHT22;9119;50.932;5.342;2023-02-01T08:13:39;5.40;99.90
17988;DHT22;9119;50.932;5.342;2023-02-01T08:16:07;5.30;99.90
17988;DHT22;9119;50.932;5.342;2023-02-01T08:18:34;5.30;99.90
17988;DHT22;9119;50.932;5.342;2023-02-01T08:21:09;5.30;99.90
17988;DHT22;9119;50.932;5.342;2023-02-01T08:23:36;5.40;99.90
17988;DHT22;9119;50.932;5.342;2023-02-01T08:26:14;5.40;99.90
17988;DHT22;9119;50.932;5.342;2023-02-01T08:28:43;5.40;99.90
17988;DHT22;9119;50.932;5.342;2023-02-01T08:31:11;5.50;99.90
17988;DHT22;9119;50.932;5.342;2023-02-01T08:33:40;5.50;99.90
17988;DHT22;9119;50.932;5.342;2023-02-01T08:36:07;5.70;99.90
17988;DHT22;9119;50.932;5.342;2023-02-01T08:38:35;5.80;99.90
17988;DHT22;9119;50.932;5.342;2023-02-01T08:41:22;5.80;99.90
17988;DHT22;9119;50.932;5.342;2023-02-01T08:43:48;5.80;99.90
17988;DHT22;9119;50.932;5.342;2023-02-01T08:46:15;5.80;99.90
17988;DHT22;9119;50.932;5.342;2023-02-01T08:48:41;5.90;99.90
17988;DHT22;9119;50.932;5.342;2023-02-01T08:51:09;6.10;99.90
17988;DHT22;9119;50.932;5.342;2023-02-01T08:53:36;6.00;99.90
17988;DHT22;9119;50.932;5.342;2023-02-01T08:56:02;6.00;99.90
17988;DHT22;9119;50.932;5.342;2023-02-01T08:58:28;6.00;99.90
17988;DHT22;9119;50.932;5.342;2023-02-01T09:00:54;6.10;99.90
17988;DHT22;9119;50.932;5.342;2023-02-01T09:03:21;6.10;99.90
17988;DHT22;9119;50.932;5.342;2023-02-01T09:05:52;6.10;99.90
17988;DHT22;9119;50.932;5.342;2023-02-01T09:08:17;6.20;99.90
17988;DHT22;9119;50.932;5.342;2023-02-01T09:10:45;6.30;99.90
17988;DHT22;9119;50.932;5.342;2023-02-01T09:13:11;6.40;99.90
17988;DHT22;9119;50.932;5.342;2023-02-01T09:15:37;6.40;99.90
17988;DHT22;9119;50.932;5.342;2023-02-01T09:18:03;6.30;99.90
17988;DHT22;9119;50.932;5.342;2023-02-01T09:20:28;6.30;99.90
17988;DHT22;9119;50.932;5.342;2023-02-01T09:22:55;6.30;99.90
17988;DHT22;9119;50.932;5.342;2023-02-01T09:25:21;6.30;99.90
17988;DHT22;9119;50.932;5.342;2023-02-01T09:27:46;6.30;99.90
17988;DHT22;9119;50.932;5.342;2023-02-01T09:30:12;6.40;99.90
17988;DHT22;9119;50.932;5.342;2023-02-01T09:32:38;6.50;99.90
17988;DHT22;9119;50.932;5.342;2023-02-01T09:35:04;6.50;99.90
17988;DHT22;9119;50.932;5.342;2023-02-01T09:37:30;6.70;99.90
17988;DHT22;9119;50.932;5.342;2023-02-01T09:39:56;6.70;99.90
17988;DHT22;9119;50.932;5.342;2023-02-01T09:42:41;6.80;99.90
17988;DHT22;9119;50.932;5.342;2023-02-01T09:45:27;7.00;99.90
17988;DHT22;9119;50.932;5.342;2023-02-01T09:47:58;7.10;99.90
17988;DHT22;9119;50.932;5.342;2023-02-01T09:50:39;7.00;99.90
17988;DHT22;9119;50.932;5.342;2023-02-01T09:53:15;7.00;99.90
17988;DHT22;9119;50.932;5.342;2023-02-01T09:55:47;7.10;99.90
17988;DHT22;9119;50.932;5.342;2023-02-01T09:58:22;7.20;99.90
17988;DHT22;9119;50.932;5.342;2023-02-01T10:00:57;7.10;99.90
17988;DHT22;9119;50.932;5.342;2023-02-01T10:03:30;7.10;99.90
17988;DHT22;9119;50.932;5.342;2023-02-01T10:11:35;9.00;99.90
17988;DHT22;9119;50.932;5.342;2023-02-01T10:16:55;9.30;99.90
17988;DHT22;9119;50.932;5.342;2023-02-01T10:19:45;9.50;99.90
17988;DHT22;9119;50.932;5.342;2023-02-01T10:25:13;8.70;99.90
17988;DHT22;9119;50.932;5.342;2023-02-01T10:27:39;9.10;99.90
17988;DHT22;9119;50.932;5.342;2023-02-01T10:30:28;9.20;99.90
17988;DHT22;9119;50.932;5.342;2023-02-01T10:32:57;9.00;99.90
17988;DHT22;9119;50.932;5.342;2023-02-01T10:35:31;9.00;99.90
17988;DHT22;9119;50.932;5.342;2023-02-01T10:38:02;8.90;99.90
17988;DHT22;9119;50.932;5.342;2023-02-01T10:40:29;8.80;99.90
17988;DHT22;9119;50.932;5.342;2023-02-01T10:43:02;9.00;99.90
17988;DHT22;9119;50.932;5.342;2023-02-01T10:45:30;9.10;99.90
17988;DHT22;9119;50.932;5.342;2023-02-01T10:47:57;9.30;99.90
17988;DHT22;9119;50.932;5.342;2023-02-01T10:50:36;9.10;99.90
17988;DHT22;9119;50.932;5.342;2023-02-01T10:53:31;9.30;99.90
17988;DHT22;9119;50.932;5.342;2023-02-01T10:56:09;9.40;99.90
17988;DHT22;9119;50.932;5.342;2023-02-01T10:58:42;8.40;99.90
17988;DHT22;9119;50.932;5.342;2023-02-01T11:01:15;8.10;99.90
17988;DHT22;9119;50.932;5.342;2023-02-01T11:03:42;8.10;99.90
17988;DHT22;9119;50.932;5.342;2023-02-01T11:06:35;8.10;99.90
17988;DHT22;9119;50.932;5.342;2023-02-01T11:11:55;8.00;99.90
17988;DHT22;9119;50.932;5.342;2023-02-01T11:14:34;8.00;99.90
17988;DHT22;9119;50.932;5.342;2023-02-01T11:19:45;8.20;99.90
17988;DHT22;9119;50.932;5.342;2023-02-01T11:22:12;8.30;99.90
17988;DHT22;9119;50.932;5.342;2023-02-01T11:24:38;8.40;99.90
17988;DHT22;9119;50.932;5.342;2023-02-01T11:27:14;8.50;99.90
17988;DHT22;9119;50.932;5.342;2023-02-01T11:29:43;8.50;99.90
17988;DHT22;9119;50.932;5.342;2023-02-01T11:32:12;8.50;99.90
17988;DHT22;9119;50.932;5.342;2023-02-01T11:34:45;8.50;99.90
17988;DHT22;9119;50.932;5.342;2023-02-01T11:37:38;8.60;99.90
17988;DHT22;9119;50.932;5.342;2023-02-01T11:40:36;8.60;99.90
17988;DHT22;9119;50.932;5.342;2023-02-01T11:43:24;8.70;99.90
17988;DHT22;9119;50.932;5.342;2023-02-01T11:45:59;8.80;99.90
17988;DHT22;9119;50.932;5.342;2023-02-01T11:48:27;8.80;99.90
17988;DHT22;9119;50.932;5.342;2023-02-01T11:54:07;8.80;99.90
17988;DHT22;9119;50.932;5.342;2023-02-01T11:59:51;9.00;99.90
17988;DHT22;9119;50.932;5.342;2023-02-01T12:13:07;8.80;99.90
17988;DHT22;9119;50.932;5.342;2023-02-01T12:27:10;8.80;99.90
17988;DHT22;9119;50.932;5.342;2023-02-01T12:30:02;8.90;99.90
17988;DHT22;9119;50.932;5.342;2023-02-01T12:38:04;8.90;99.90
17988;DHT22;9119;50.932;5.342;2023-02-01T12:43:19;8.70;99.90
17988;DHT22;9119;50.932;5.342;2023-02-01T12:45:58;8.80;99.90
17988;DHT22;9119;50.932;5.342;2023-02-01T12:50:58;8.80;99.90
17988;DHT22;9119;50.932;5.342;2023-02-01T12:53:52;8.70;99.90
17988;DHT22;9119;50.932;5.342;2023-02-01T12:56:27;8.70;99.90
17988;DHT22;9119;50.932;5.342;2023-02-01T12:58:58;8.70;99.90
17988;DHT22;9119;50.932;5.342;2023-02-01T13:01:46;8.70;99.90
17988;DHT22;9119;50.932;5.342;2023-02-01T13:04:37;8.80;99.90
17988;DHT22;9119;50.932;5.342;2023-02-01T13:07:20;8.80;99.90
17988;DHT22;9119;50.932;5.342;2023-02-01T13:09:57;8.80;99.90
17988;DHT22;9119;50.932;5.342;2023-02-01T13:12:44;8.80;99.90
17988;DHT22;9119;50.932;5.342;2023-02-01T13:15:14;8.70;99.90
17988;DHT22;9119;50.932;5.342;2023-02-01T13:17:43;8.70;99.90
17988;DHT22;9119;50.932;5.342;2023-02-01T13:20:31;8.70;99.90
17988;DHT22;9119;50.932;5.342;2023-02-01T13:23:09;8.70;99.90
17988;DHT22;9119;50.932;5.342;2023-02-01T13:25:52;8.70;99.90
17988;DHT22;9119;50.932;5.342;2023-02-01T13:31:04;8.70;99.90
17988;DHT22;9119;50.932;5.342;2023-02-01T13:42:41;8.70;99.90
17988;DHT22;9119;50.932;5.342;2023-02-01T13:44:46;8.80;99.90
17988;DHT22;9119;50.932;5.342;2023-02-01T13:49:42;8.80;99.90
17988;DHT22;9119;50.932;5.342;2023-02-01T13:52:33;8.90;99.90
17988;DHT22;9119;50.932;5.342;2023-02-01T13:57:49;8.90;99.90
17988;DHT22;9119;50.932;5.342;2023-02-01T14:00:36;8.90;99.90
17988;DHT22;9119;50.932;5.342;2023-02-01T14:08:11;9.00;99.90
17988;DHT22;9119;50.932;5.342;2023-02-01T14:10:54;8.90;99.90
17988;DHT22;9119;50.932;5.342;2023-02-01T14:13:38;8.90;99.90
17988;DHT22;9119;50.932;5.342;2023-02-01T14:32:05;9.00;99.90
17988;DHT22;9119;50.932;5.342;2023-02-01T14:47:51;9.10;99.90
17988;DHT22;9119;50.932;5.342;2023-02-01T14:55:45;9.10;99.90
17988;DHT22;9119;50.932;5.342;2023-02-01T15:00:58;9.10;99.90
17988;DHT22;9119;50.932;5.342;2023-02-01T15:03:36;9.10;99.90
17988;DHT22;9119;50.932;5.342;2023-02-01T15:06:47;9.10;99.90
17988;DHT22;9119;50.932;5.342;2023-02-01T15:09:54;9.10;99.90
17988;DHT22;9119;50.932;5.342;2023-02-01T15:14:45;9.00;99.90
17988;DHT22;9119;50.932;5.342;2023-02-01T15:20:11;9.00;99.90
17988;DHT22;9119;50.932;5.342;2023-02-01T15:22:37;9.00;99.90
17988;DHT22;9119;50.932;5.342;2023-02-01T15:25:03;9.00;99.90
17988;DHT22;9119;50.932;5.342;2023-02-01T15:27:30;9.00;99.90
17988;DHT22;9119;50.932;5.342;2023-02-01T15:30:19;9.00;99.90
17988;DHT22;9119;50.932;5.342;2023-02-01T15:32:46;9.00;99.90
17988;DHT22;9119;50.932;5.342;2023-02-01T15:46:30;9.00;99.90
17988;DHT22;9119;50.932;5.342;2023-02-01T15:48:56;9.00;99.90
17988;DHT22;9119;50.932;5.342;2023-02-01T15:51:24;8.90;99.90
17988;DHT22;9119;50.932;5.342;2023-02-01T15:54:18;8.90;99.90
17988;DHT22;9119;50.932;5.342;2023-02-01T15:56:50;8.90;99.90
17988;DHT22;9119;50.932;5.342;2023-02-01T15:59:24;8.80;99.90
17988;DHT22;9119;50.932;5.342;2023-02-01T16:01:50;8.80;99.90
17988;DHT22;9119;50.932;5.342;2023-02-01T16:04:18;8.90;99.90
17988;DHT22;9119;50.932;5.342;2023-02-01T16:06:54;8.90;99.90
17988;DHT22;9119;50.932;5.342;2023-02-01T16:09:23;8.80;99.90
17988;DHT22;9119;50.932;5.342;2023-02-01T16:11:56;8.70;99.90
17988;DHT22;9119;50.932;5.342;2023-02-01T16:14:23;8.60;99.90
17988;DHT22;9119;50.932;5.342;2023-02-01T16:16:49;8.60;99.90
17988;DHT22;9119;50.932;5.342;2023-02-01T16:19:15;8.60;99.90
17988;DHT22;9119;50.932;5.342;2023-02-01T16:21:41;8.60;99.90
17988;DHT22;9119;50.932;5.342;2023-02-01T16:24:07;8.60;99.90
17988;DHT22;9119;50.932;5.342;2023-02-01T16:26:33;8.60;99.90
17988;DHT22;9119;50.932;5.342;2023-02-01T16:29:00;8.60;99.90
17988;DHT22;9119;50.932;5.342;2023-02-01T16:31:30;8.60;99.90
17988;DHT22;9119;50.932;5.342;2023-02-01T16:33:57;8.60;99.90
17988;DHT22;9119;50.932;5.342;2023-02-01T16:36:24;8.60;99.90
17988;DHT22;9119;50.932;5.342;2023-02-01T16:38:50;8.60;99.90
17988;DHT22;9119;50.932;5.342;2023-02-01T16:41:20;8.60;99.90
17988;DHT22;9119;50.932;5.342;2023-02-01T16:43:50;8.70;99.90
17988;DHT22;9119;50.932;5.342;2023-02-01T16:46:18;8.70;99.90
17988;DHT22;9119;50.932;5.342;2023-02-01T16:48:56;8.70;99.90
17988;DHT22;9119;50.932;5.342;2023-02-01T16:51:24;8.70;99.90
17988;DHT22;9119;50.932;5.342;2023-02-01T16:53:51;8.60;99.90
17988;DHT22;9119;50.932;5.342;2023-02-01T16:56:32;8.50;99.90
17988;DHT22;9119;50.932;5.342;2023-02-01T16:58:59;8.60;99.90
17988;DHT22;9119;50.932;5.342;2023-02-01T17:01:25;8.60;99.90
17988;DHT22;9119;50.932;5.342;2023-02-01T17:03:51;8.50;99.90
17988;DHT22;9119;50.932;5.342;2023-02-01T17:06:22;8.50;99.90
17988;DHT22;9119;50.932;5.342;2023-02-01T17:08:56;8.50;99.90
17988;DHT22;9119;50.932;5.342;2023-02-01T17:11:26;8.50;99.90
17988;DHT22;9119;50.932;5.342;2023-02-01T17:13:53;8.50;99.90
17988;DHT22;9119;50.932;5.342;2023-02-01T17:18:49;8.50;99.90
17988;DHT22;9119;50.932;5.342;2023-02-01T17:21:15;8.50;99.90
17988;DHT22;9119;50.932;5.342;2023-02-01T17:23:41;8.60;99.90
17988;DHT22;9119;50.932;5.342;2023-02-01T17:26:09;8.60;99.90
17988;DHT22;9119;50.932;5.342;2023-02-01T17:28:35;8.60;99.90
17988;DHT22;9119;50.932;5.342;2023-02-01T17:31:02;8.50;99.90
17988;DHT22;9119;50.932;5.342;2023-02-01T17:33:33;8.50;99.90
17988;DHT22;9119;50.932;5.342;2023-02-01T17:36:00;8.60;99.90
17988;DHT22;9119;50.932;5.342;2023-02-01T17:38:26;8.60;99.90
17988;DHT22;9119;50.932;5.342;2023-02-01T17:40:54;8.50;99.90
17988;DHT22;9119;50.932;5.342;2023-02-01T17:43:22;8.50;99.90
17988;DHT22;9119;50.932;5.342;2023-02-01T17:46:10;8.40;99.90
17988;DHT22;9119;50.932;5.342;2023-02-01T17:48:37;8.40;99.90
17988;DHT22;9119;50.932;5.342;2023-02-01T17:51:04;8.40;99.90
17988;DHT22;9119;50.932;5.342;2023-02-01T17:53:30;8.40;99.90
17988;DHT22;9119;50.932;5.342;2023-02-01T17:55:56;8.40;99.90
17988;DHT22;9119;50.932;5.342;2023-02-01T17:58:24;8.40;99.90
17988;DHT22;9119;50.932;5.342;2023-02-01T18:00:51;8.30;99.90
17988;DHT22;9119;50.932;5.342;2023-02-01T18:03:21;8.30;99.90
17988;DHT22;9119;50.932;5.342;2023-02-01T18:05:48;8.30;99.90
17988;DHT22;9119;50.932;5.342;2023-02-01T18:08:21;8.30;99.90
17988;DHT22;9119;50.932;5.342;2023-02-01T18:10:52;8.30;99.90
17988;DHT22;9119;50.932;5.342;2023-02-01T18:13:19;8.30;99.90
17988;DHT22;9119;50.932;5.342;2023-02-01T18:15:45;8.30;99.90
17988;DHT22;9119;50.932;5.342;2023-02-01T18:18:11;8.30;99.90
17988;DHT22;9119;50.932;5.342;2023-02-01T18:20:39;8.30;99.90
17988;DHT22;9119;50.932;5.342;2023-02-01T18:23:08;8.30;99.90
17988;DHT22;9119;50.932;5.342;2023-02-01T18:25:37;8.30;99.90
17988;DHT22;9119;50.932;5.342;2023-02-01T18:28:03;8.30;99.90
17988;DHT22;9119;50.932;5.342;2023-02-01T18:30:30;8.30;99.90
17988;DHT22;9119;50.932;5.342;2023-02-01T18:32:57;8.40;99.90
17988;DHT22;9119;50.932;5.342;2023-02-01T18:35:26;8.40;99.90
17988;DHT22;9119;50.932;5.342;2023-02-01T18:37:52;8.30;99.90
17988;DHT22;9119;50.932;5.342;2023-02-01T18:40:26;8.40;99.90
17988;DHT22;9119;50.932;5.342;2023-02-01T18:42:52;8.40;99.90
17988;DHT22;9119;50.932;5.342;2023-02-01T18:45:26;8.40;99.90
17988;DHT22;9119;50.932;5.342;2023-02-01T18:47:53;8.40;99.90
17988;DHT22;9119;50.932;5.342;2023-02-01T18:50:19;8.40;99.90
17988;DHT22;9119;50.932;5.342;2023-02-01T18:52:45;8.40;99.90
17988;DHT22;9119;50.932;5.342;2023-02-01T18:55:11;8.40;99.90
17988;DHT22;9119;50.932;5.342;2023-02-01T18:57:38;8.50;99.90
17988;DHT22;9119;50.932;5.342;2023-02-01T19:00:06;8.50;99.90
17988;DHT22;9119;50.932;5.342;2023-02-01T19:02:32;8.50;99.90
17988;DHT22;9119;50.932;5.342;2023-02-01T19:04:58;8.50;99.90
17988;DHT22;9119;50.932;5.342;2023-02-01T19:07:24;8.50;99.90
17988;DHT22;9119;50.932;5.342;2023-02-01T19:09:49;8.50;99.90
17988;DHT22;9119;50.932;5.342;2023-02-01T19:12:15;8.50;99.90
17988;DHT22;9119;50.932;5.342;2023-02-01T19:14:41;8.40;99.90